sensor_id;sensor_type;location;lat;lon;timestamp;P1;durP1;ratioP1;P2;durP2;ratioP2
42288;SDS011;30230;47.520;19.016;2022-08-06T00:00:49;1.73;;;1.00;;
42288;SDS011;30230;47.520;19.016;2022-08-06T00:02:49;2.93;;;1.27;;
42288;SDS011;30230;47.520;19.016;2022-08-06T00:04:50;4.00;;;1.20;;
42288;SDS011;30230;47.520;19.016;2022-08-06T00:06:50;4.83;;;1.37;;
42288;SDS011;30230;47.520;19.016;2022-08-06T00:08:51;3.60;;;1.27;;
42288;SDS011;30230;47.520;19.016;2022-08-06T00:10:51;2.03;;;1.30;;
42288;SDS011;30230;47.520;19.016;2022-08-06T00:12:52;3.23;;;1.30;;
42288;SDS011;30230;47.520;19.016;2022-08-06T00:14:52;1.30;;;1.13;;
42288;SDS011;30230;47.520;19.016;2022-08-06T00:16:53;1.67;;;1.30;;
42288;SDS011;30230;47.520;19.016;2022-08-06T00:18:53;1.77;;;0.90;;
42288;SDS011;30230;47.520;19.016;2022-08-06T00:20:54;1.50;;;0.97;;
42288;SDS011;30230;47.520;19.016;2022-08-06T00:22:54;1.73;;;1.60;;
42288;SDS011;30230;47.520;19.016;2022-08-06T00:24:55;2.50;;;1.17;;
42288;SDS011;30230;47.520;19.016;2022-08-06T00:26:56;4.28;;;1.38;;
42288;SDS011;30230;47.520;19.016;2022-08-06T00:28:56;3.23;;;1.50;;
42288;SDS011;30230;47.520;19.016;2022-08-06T00:30:57;2.40;;;1.37;;
42288;SDS011;30230;47.520;19.016;2022-08-06T00:32:58;2.80;;;1.38;;
42288;SDS011;30230;47.520;19.016;2022-08-06T00:34:59;4.47;;;2.07;;
42288;SDS011;30230;47.520;19.016;2022-08-06T00:37:00;2.33;;;1.33;;
42288;SDS011;30230;47.520;19.016;2022-08-06T00:39:02;8.33;;;1.60;;
42288;SDS011;30230;47.520;19.016;2022-08-06T00:41:04;1.92;;;1.58;;
42288;SDS011;30230;47.520;19.016;2022-08-06T00:43:05;1.90;;;1.60;;
42288;SDS011;30230;47.520;19.016;2022-08-06T00:45:05;1.90;;;1.30;;
42288;SDS011;30230;47.520;19.016;2022-08-06T00:47:07;3.03;;;1.40;;
42288;SDS011;30230;47.520;19.016;2022-08-06T00:49:08;2.70;;;1.42;;
42288;SDS011;30230;47.520;19.016;2022-08-06T00:51:10;1.65;;;1.52;;
42288;SDS011;30230;47.520;19.016;2022-08-06T00:53:10;4.97;;;1.50;;
42288;SDS011;30230;47.520;19.016;2022-08-06T00:55:11;4.00;;;1.70;;
42288;SDS011;30230;47.520;19.016;2022-08-06T00:57:11;2.10;;;1.43;;
42288;SDS011;30230;47.520;19.016;2022-08-06T00:59:12;2.80;;;1.50;;
42288;SDS011;30230;47.520;19.016;2022-08-06T01:01:12;2.20;;;1.30;;
42288;SDS011;30230;47.520;19.016;2022-08-06T01:03:13;2.90;;;1.43;;
42288;SDS011;30230;47.520;19.016;2022-08-06T01:05:16;1.65;;;1.20;;
42288;SDS011;30230;47.520;19.016;2022-08-06T01:07:17;6.70;;;2.15;;
42288;SDS011;30230;47.520;19.016;2022-08-06T01:09:17;2.63;;;1.65;;
42288;SDS011;30230;47.520;19.016;2022-08-06T01:11:17;2.03;;;1.43;;
42288;SDS011;30230;47.520;19.016;2022-08-06T01:13:18;3.23;;;1.90;;
42288;SDS011;30230;47.520;19.016;2022-08-06T01:15:18;1.87;;;1.40;;
42288;SDS011;30230;47.520;19.016;2022-08-06T01:17:22;2.83;;;1.75;;
42288;SDS011;30230;47.520;19.016;2022-08-06T01:29:57;3.63;;;1.85;;
42288;SDS011;30230;47.520;19.016;2022-08-06T01:31:53;2.22;;;1.50;;
42288;SDS011;30230;47.520;19.016;2022-08-06T01:34:00;2.30;;;1.73;;
42288;SDS011;30230;47.520;19.016;2022-08-06T01:36:09;3.33;;;1.60;;
42288;SDS011;30230;47.520;19.016;2022-08-06T01:38:48;3.25;;;1.55;;
42288;SDS011;30230;47.520;19.016;2022-08-06T01:40:51;1.88;;;1.60;;
42288;SDS011;30230;47.520;19.016;2022-08-06T01:42:53;3.38;;;1.95;;
42288;SDS011;30230;47.520;19.016;2022-08-06T01:44:56;1.70;;;1.23;;
42288;SDS011;30230;47.520;19.016;2022-08-06T01:47:02;2.78;;;1.55;;
42288;SDS011;30230;47.520;19.016;2022-08-06T01:49:08;7.57;;;1.83;;
42288;SDS011;30230;47.520;19.016;2022-08-06T01:51:09;2.63;;;1.55;;
42288;SDS011;30230;47.520;19.016;2022-08-06T01:53:12;2.85;;;1.77;;
42288;SDS011;30230;47.520;19.016;2022-08-06T01:55:18;2.05;;;1.50;;
42288;SDS011;30230;47.520;19.016;2022-08-06T01:57:20;3.25;;;1.95;;
42288;SDS011;30230;47.520;19.016;2022-08-06T01:59:25;3.13;;;1.95;;
42288;SDS011;30230;47.520;19.016;2022-08-06T02:01:30;2.58;;;1.75;;
42288;SDS011;30230;47.520;19.016;2022-08-06T02:03:54;1.95;;;1.23;;
42288;SDS011;30230;47.520;19.016;2022-08-06T02:05:55;2.13;;;1.70;;
42288;SDS011;30230;47.520;19.016;2022-08-06T02:07:57;2.60;;;1.63;;
42288;SDS011;30230;47.520;19.016;2022-08-06T02:10:00;3.40;;;1.92;;
42288;SDS011;30230;47.520;19.016;2022-08-06T02:12:04;4.30;;;1.63;;
42288;SDS011;30230;47.520;19.016;2022-08-06T02:14:09;3.92;;;2.00;;
42288;SDS011;30230;47.520;19.016;2022-08-06T02:16:14;2.58;;;1.60;;
42288;SDS011;30230;47.520;19.016;2022-08-06T02:18:16;1.92;;;1.73;;
42288;SDS011;30230;47.520;19.016;2022-08-06T02:20:21;2.92;;;2.22;;
42288;SDS011;30230;47.520;19.016;2022-08-06T02:22:26;2.97;;;1.90;;
42288;SDS011;30230;47.520;19.016;2022-08-06T02:24:29;3.55;;;1.67;;
42288;SDS011;30230;47.520;19.016;2022-08-06T02:26:31;2.95;;;1.65;;
42288;SDS011;30230;47.520;19.016;2022-08-06T02:28:35;3.15;;;1.77;;
42288;SDS011;30230;47.520;19.016;2022-08-06T02:30:38;1.48;;;1.23;;
42288;SDS011;30230;47.520;19.016;2022-08-06T02:32:43;2.78;;;1.65;;
42288;SDS011;30230;47.520;19.016;2022-08-06T02:34:44;3.22;;;1.48;;
42288;SDS011;30230;47.520;19.016;2022-08-06T02:36:45;2.20;;;1.67;;
42288;SDS011;30230;47.520;19.016;2022-08-06T02:41:23;4.03;;;1.83;;
42288;SDS011;30230;47.520;19.016;2022-08-06T02:43:37;2.17;;;1.50;;
42288;SDS011;30230;47.520;19.016;2022-08-06T02:45:44;3.47;;;1.70;;
42288;SDS011;30230;47.520;19.016;2022-08-06T02:47:48;1.95;;;1.70;;
42288;SDS011;30230;47.520;19.016;2022-08-06T02:50:00;3.03;;;1.67;;
42288;SDS011;30230;47.520;19.016;2022-08-06T02:52:04;2.47;;;1.90;;
42288;SDS011;30230;47.520;19.016;2022-08-06T02:54:14;2.50;;;2.03;;
42288;SDS011;30230;47.520;19.016;2022-08-06T02:56:19;2.35;;;1.58;;
42288;SDS011;30230;47.520;19.016;2022-08-06T02:58:32;2.80;;;1.63;;
42288;SDS011;30230;47.520;19.016;2022-08-06T03:00:36;1.58;;;1.48;;
42288;SDS011;30230;47.520;19.016;2022-08-06T03:02:39;3.53;;;1.63;;
42288;SDS011;30230;47.520;19.016;2022-08-06T03:04:45;7.93;;;2.10;;
42288;SDS011;30230;47.520;19.016;2022-08-06T03:06:48;2.55;;;1.55;;
42288;SDS011;30230;47.520;19.016;2022-08-06T03:08:51;2.65;;;1.35;;
42288;SDS011;30230;47.520;19.016;2022-08-06T03:10:54;2.28;;;1.48;;
42288;SDS011;30230;47.520;19.016;2022-08-06T03:14:58;2.80;;;1.52;;
42288;SDS011;30230;47.520;19.016;2022-08-06T03:17:02;1.77;;;1.38;;
42288;SDS011;30230;47.520;19.016;2022-08-06T03:19:03;1.88;;;1.27;;
42288;SDS011;30230;47.520;19.016;2022-08-06T03:21:05;2.47;;;1.67;;
42288;SDS011;30230;47.520;19.016;2022-08-06T03:23:08;4.32;;;1.90;;
42288;SDS011;30230;47.520;19.016;2022-08-06T03:25:10;3.67;;;1.50;;
42288;SDS011;30230;47.520;19.016;2022-08-06T03:27:14;5.00;;;2.08;;
42288;SDS011;30230;47.520;19.016;2022-08-06T03:29:16;2.97;;;1.60;;
42288;SDS011;30230;47.520;19.016;2022-08-06T03:31:17;2.25;;;1.55;;
42288;SDS011;30230;47.520;19.016;2022-08-06T03:33:18;4.97;;;1.40;;
42288;SDS011;30230;47.520;19.016;2022-08-06T03:35:19;5.90;;;1.92;;
42288;SDS011;30230;47.520;19.016;2022-08-06T03:37:20;2.92;;;1.30;;
42288;SDS011;30230;47.520;19.016;2022-08-06T03:39:22;3.22;;;1.88;;
42288;SDS011;30230;47.520;19.016;2022-08-06T03:41:25;3.95;;;1.50;;
42288;SDS011;30230;47.520;19.016;2022-08-06T03:43:28;2.20;;;1.52;;
42288;SDS011;30230;47.520;19.016;2022-08-06T03:45:29;5.27;;;1.67;;
42288;SDS011;30230;47.520;19.016;2022-08-06T03:47:34;2.70;;;1.58;;
42288;SDS011;30230;47.520;19.016;2022-08-06T03:50:01;2.00;;;1.77;;
42288;SDS011;30230;47.520;19.016;2022-08-06T03:52:02;3.00;;;1.57;;
42288;SDS011;30230;47.520;19.016;2022-08-06T03:54:05;2.35;;;1.50;;
42288;SDS011;30230;47.520;19.016;2022-08-06T03:56:09;2.47;;;1.50;;
42288;SDS011;30230;47.520;19.016;2022-08-06T03:58:14;3.05;;;1.92;;
42288;SDS011;30230;47.520;19.016;2022-08-06T04:00:16;2.03;;;1.48;;
42288;SDS011;30230;47.520;19.016;2022-08-06T04:02:19;2.20;;;1.42;;
42288;SDS011;30230;47.520;19.016;2022-08-06T04:04:20;2.03;;;1.40;;
42288;SDS011;30230;47.520;19.016;2022-08-06T04:06:22;3.70;;;1.75;;
42288;SDS011;30230;47.520;19.016;2022-08-06T04:10:29;3.92;;;1.60;;
42288;SDS011;30230;47.520;19.016;2022-08-06T04:12:32;4.40;;;1.42;;
42288;SDS011;30230;47.520;19.016;2022-08-06T04:14:33;2.42;;;1.60;;
42288;SDS011;30230;47.520;19.016;2022-08-06T04:16:35;1.88;;;1.67;;
42288;SDS011;30230;47.520;19.016;2022-08-06T04:18:37;2.53;;;1.77;;
42288;SDS011;30230;47.520;19.016;2022-08-06T04:20:40;2.85;;;1.67;;
42288;SDS011;30230;47.520;19.016;2022-08-06T04:22:43;3.67;;;1.50;;
42288;SDS011;30230;47.520;19.016;2022-08-06T04:24:44;4.32;;;1.27;;
42288;SDS011;30230;47.520;19.016;2022-08-06T04:26:45;2.78;;;1.40;;
42288;SDS011;30230;47.520;19.016;2022-08-06T04:28:49;3.67;;;1.70;;
42288;SDS011;30230;47.520;19.016;2022-08-06T04:30:53;4.05;;;1.67;;
42288;SDS011;30230;47.520;19.016;2022-08-06T04:32:55;2.33;;;1.70;;
42288;SDS011;30230;47.520;19.016;2022-08-06T04:34:56;4.40;;;1.58;;
42288;SDS011;30230;47.520;19.016;2022-08-06T04:38:59;2.20;;;1.48;;
42288;SDS011;30230;47.520;19.016;2022-08-06T04:41:00;4.97;;;2.17;;
42288;SDS011;30230;47.520;19.016;2022-08-06T04:43:02;4.68;;;1.20;;
42288;SDS011;30230;47.520;19.016;2022-08-06T04:45:06;2.17;;;1.77;;
42288;SDS011;30230;47.520;19.016;2022-08-06T04:47:08;3.80;;;1.50;;
42288;SDS011;30230;47.520;19.016;2022-08-06T04:49:10;4.47;;;1.40;;
42288;SDS011;30230;47.520;19.016;2022-08-06T04:51:11;1.42;;;1.30;;
42288;SDS011;30230;47.520;19.016;2022-08-06T04:53:12;2.53;;;1.83;;
42288;SDS011;30230;47.520;19.016;2022-08-06T04:55:14;2.92;;;1.38;;
42288;SDS011;30230;47.520;19.016;2022-08-06T04:57:17;3.20;;;1.52;;
42288;SDS011;30230;47.520;19.016;2022-08-06T04:59:17;1.73;;;1.30;;
42288;SDS011;30230;47.520;19.016;2022-08-06T05:01:18;4.05;;;1.90;;
42288;SDS011;30230;47.520;19.016;2022-08-06T05:03:18;1.53;;;1.17;;
42288;SDS011;30230;47.520;19.016;2022-08-06T05:05:19;2.45;;;1.58;;
42288;SDS011;30230;47.520;19.016;2022-08-06T05:07:31;3.88;;;1.70;;
42288;SDS011;30230;47.520;19.016;2022-08-06T05:09:32;1.65;;;1.55;;
42288;SDS011;30230;47.520;19.016;2022-08-06T05:11:35;6.90;;;2.00;;
42288;SDS011;30230;47.520;19.016;2022-08-06T05:13:40;1.90;;;1.63;;
42288;SDS011;30230;47.520;19.016;2022-08-06T05:15:45;1.88;;;1.67;;
42288;SDS011;30230;47.520;19.016;2022-08-06T05:20:27;2.50;;;1.90;;
42288;SDS011;30230;47.520;19.016;2022-08-06T05:22:31;3.58;;;1.88;;
42288;SDS011;30230;47.520;19.016;2022-08-06T05:24:32;4.55;;;1.80;;
42288;SDS011;30230;47.520;19.016;2022-08-06T05:26:33;4.53;;;2.00;;
42288;SDS011;30230;47.520;19.016;2022-08-06T05:28:34;3.40;;;1.80;;
42288;SDS011;30230;47.520;19.016;2022-08-06T05:30:42;2.85;;;1.67;;
42288;SDS011;30230;47.520;19.016;2022-08-06T05:32:45;2.38;;;1.88;;
42288;SDS011;30230;47.520;19.016;2022-08-06T05:34:47;2.67;;;1.98;;
42288;SDS011;30230;47.520;19.016;2022-08-06T05:36:48;2.85;;;2.08;;
42288;SDS011;30230;47.520;19.016;2022-08-06T05:38:48;2.07;;;1.70;;
42288;SDS011;30230;47.520;19.016;2022-08-06T05:40:49;2.65;;;1.70;;
42288;SDS011;30230;47.520;19.016;2022-08-06T05:42:50;3.58;;;1.38;;
42288;SDS011;30230;47.520;19.016;2022-08-06T05:44:50;4.47;;;1.73;;
42288;SDS011;30230;47.520;19.016;2022-08-06T05:46:51;3.15;;;1.70;;
42288;SDS011;30230;47.520;19.016;2022-08-06T05:48:56;2.53;;;1.50;;
42288;SDS011;30230;47.520;19.016;2022-08-06T05:51:01;5.28;;;1.75;;
42288;SDS011;30230;47.520;19.016;2022-08-06T05:53:15;4.53;;;1.80;;
42288;SDS011;30230;47.520;19.016;2022-08-06T05:55:30;2.60;;;1.35;;
42288;SDS011;30230;47.520;19.016;2022-08-06T05:59:41;4.78;;;1.50;;
42288;SDS011;30230;47.520;19.016;2022-08-06T06:01:46;2.90;;;1.60;;
42288;SDS011;30230;47.520;19.016;2022-08-06T06:03:50;2.00;;;1.60;;
42288;SDS011;30230;47.520;19.016;2022-08-06T06:05:54;3.05;;;1.80;;
42288;SDS011;30230;47.520;19.016;2022-08-06T06:07:56;2.28;;;1.77;;
42288;SDS011;30230;47.520;19.016;2022-08-06T06:09:57;2.03;;;1.25;;
42288;SDS011;30230;47.520;19.016;2022-08-06T06:11:58;2.57;;;1.53;;
42288;SDS011;30230;47.520;19.016;2022-08-06T06:13:59;2.85;;;1.88;;
42288;SDS011;30230;47.520;19.016;2022-08-06T06:20:49;3.28;;;1.70;;
42288;SDS011;30230;47.520;19.016;2022-08-06T06:25:23;2.28;;;1.55;;
42288;SDS011;30230;47.520;19.016;2022-08-06T06:30:00;4.10;;;1.30;;
42288;SDS011;30230;47.520;19.016;2022-08-06T06:32:08;3.67;;;1.65;;
42288;SDS011;30230;47.520;19.016;2022-08-06T06:36:34;5.03;;;1.50;;
42288;SDS011;30230;47.520;19.016;2022-08-06T06:41:04;1.65;;;1.40;;
42288;SDS011;30230;47.520;19.016;2022-08-06T06:43:15;11.00;;;1.60;;
42288;SDS011;30230;47.520;19.016;2022-08-06T06:45:34;2.80;;;1.63;;
42288;SDS011;30230;47.520;19.016;2022-08-06T06:49:56;2.20;;;1.55;;
42288;SDS011;30230;47.520;19.016;2022-08-06T06:52:23;4.85;;;2.05;;
42288;SDS011;30230;47.520;19.016;2022-08-06T06:54:28;4.93;;;1.85;;
42288;SDS011;30230;47.520;19.016;2022-08-06T06:56:40;2.75;;;1.85;;
42288;SDS011;30230;47.520;19.016;2022-08-06T06:58:49;2.20;;;1.42;;
42288;SDS011;30230;47.520;19.016;2022-08-06T07:00:55;2.30;;;1.70;;
42288;SDS011;30230;47.520;19.016;2022-08-06T07:02:56;2.35;;;1.75;;
42288;SDS011;30230;47.520;19.016;2022-08-06T07:04:59;5.72;;;1.73;;
42288;SDS011;30230;47.520;19.016;2022-08-06T07:07:02;3.80;;;1.95;;
42288;SDS011;30230;47.520;19.016;2022-08-06T07:09:05;2.83;;;2.00;;
42288;SDS011;30230;47.520;19.016;2022-08-06T07:11:07;2.47;;;1.60;;
42288;SDS011;30230;47.520;19.016;2022-08-06T07:13:08;4.22;;;1.77;;
42288;SDS011;30230;47.520;19.016;2022-08-06T07:15:11;2.28;;;1.80;;
42288;SDS011;30230;47.520;19.016;2022-08-06T07:17:12;2.50;;;1.65;;
42288;SDS011;30230;47.520;19.016;2022-08-06T07:19:18;4.07;;;2.13;;
42288;SDS011;30230;47.520;19.016;2022-08-06T07:21:20;4.45;;;1.77;;
42288;SDS011;30230;47.520;19.016;2022-08-06T07:23:22;6.82;;;2.00;;
42288;SDS011;30230;47.520;19.016;2022-08-06T07:25:23;1.92;;;1.40;;
42288;SDS011;30230;47.520;19.016;2022-08-06T07:27:42;2.20;;;1.40;;
42288;SDS011;30230;47.520;19.016;2022-08-06T07:29:45;2.95;;;1.73;;
42288;SDS011;30230;47.520;19.016;2022-08-06T07:33:48;2.03;;;1.77;;
42288;SDS011;30230;47.520;19.016;2022-08-06T07:35:51;2.90;;;1.73;;
42288;SDS011;30230;47.520;19.016;2022-08-06T07:37:56;2.70;;;1.75;;
42288;SDS011;30230;47.520;19.016;2022-08-06T07:40:00;2.90;;;1.80;;
42288;SDS011;30230;47.520;19.016;2022-08-06T07:42:08;3.53;;;2.00;;
42288;SDS011;30230;47.520;19.016;2022-08-06T07:44:11;1.98;;;1.63;;
42288;SDS011;30230;47.520;19.016;2022-08-06T07:46:13;3.17;;;1.67;;
42288;SDS011;30230;47.520;19.016;2022-08-06T07:48:19;2.92;;;2.22;;
42288;SDS011;30230;47.520;19.016;2022-08-06T07:50:24;5.72;;;2.00;;
42288;SDS011;30230;47.520;19.016;2022-08-06T07:52:27;3.08;;;2.00;;
42288;SDS011;30230;47.520;19.016;2022-08-06T07:56:30;6.80;;;1.60;;
42288;SDS011;30230;47.520;19.016;2022-08-06T08:00:34;2.40;;;1.88;;
42288;SDS011;30230;47.520;19.016;2022-08-06T08:02:36;3.30;;;1.60;;
42288;SDS011;30230;47.520;19.016;2022-08-06T08:04:37;2.95;;;1.95;;
42288;SDS011;30230;47.520;19.016;2022-08-06T08:06:59;4.03;;;1.52;;
42288;SDS011;30230;47.520;19.016;2022-08-06T08:09:23;3.05;;;1.67;;
42288;SDS011;30230;47.520;19.016;2022-08-06T08:11:24;2.63;;;1.40;;
42288;SDS011;30230;47.520;19.016;2022-08-06T08:13:25;1.70;;;1.38;;
42288;SDS011;30230;47.520;19.016;2022-08-06T08:15:26;2.37;;;1.63;;
42288;SDS011;30230;47.520;19.016;2022-08-06T08:17:26;2.70;;;1.63;;
42288;SDS011;30230;47.520;19.016;2022-08-06T08:21:32;3.60;;;1.50;;
42288;SDS011;30230;47.520;19.016;2022-08-06T08:23:33;2.23;;;1.60;;
42288;SDS011;30230;47.520;19.016;2022-08-06T08:25:34;2.20;;;1.42;;
42288;SDS011;30230;47.520;19.016;2022-08-06T08:27:35;1.70;;;1.20;;
42288;SDS011;30230;47.520;19.016;2022-08-06T08:29:36;4.70;;;1.53;;
42288;SDS011;30230;47.520;19.016;2022-08-06T08:31:40;3.58;;;1.42;;
42288;SDS011;30230;47.520;19.016;2022-08-06T08:33:41;1.87;;;1.43;;
42288;SDS011;30230;47.520;19.016;2022-08-06T08:35:42;2.83;;;1.77;;
42288;SDS011;30230;47.520;19.016;2022-08-06T08:37:42;4.23;;;1.67;;
42288;SDS011;30230;47.520;19.016;2022-08-06T08:39:42;2.07;;;1.43;;
42288;SDS011;30230;47.520;19.016;2022-08-06T08:41:47;1.73;;;1.33;;
42288;SDS011;30230;47.520;19.016;2022-08-06T08:43:52;2.28;;;1.52;;
42288;SDS011;30230;47.520;19.016;2022-08-06T08:45:59;2.45;;;1.27;;
42288;SDS011;30230;47.520;19.016;2022-08-06T08:48:02;2.88;;;1.25;;
42288;SDS011;30230;47.520;19.016;2022-08-06T08:50:04;1.73;;;1.10;;
42288;SDS011;30230;47.520;19.016;2022-08-06T08:52:06;1.70;;;1.45;;
42288;SDS011;30230;47.520;19.016;2022-08-06T08:54:08;4.57;;;1.30;;
42288;SDS011;30230;47.520;19.016;2022-08-06T08:56:11;2.08;;;1.67;;
42288;SDS011;30230;47.520;19.016;2022-08-06T08:58:12;1.60;;;1.50;;
42288;SDS011;30230;47.520;19.016;2022-08-06T09:00:14;2.42;;;1.67;;
42288;SDS011;30230;47.520;19.016;2022-08-06T09:02:15;2.23;;;1.80;;
42288;SDS011;30230;47.520;19.016;2022-08-06T09:04:15;4.57;;;1.80;;
42288;SDS011;30230;47.520;19.016;2022-08-06T09:06:16;2.30;;;1.40;;
42288;SDS011;30230;47.520;19.016;2022-08-06T09:08:17;5.95;;;1.30;;
42288;SDS011;30230;47.520;19.016;2022-08-06T09:10:18;2.93;;;1.20;;
42288;SDS011;30230;47.520;19.016;2022-08-06T09:12:19;3.77;;;1.50;;
42288;SDS011;30230;47.520;19.016;2022-08-06T09:14:19;3.37;;;1.40;;
42288;SDS011;30230;47.520;19.016;2022-08-06T09:16:21;1.60;;;1.33;;
42288;SDS011;30230;47.520;19.016;2022-08-06T09:18:22;2.53;;;1.80;;
42288;SDS011;30230;47.520;19.016;2022-08-06T09:20:24;1.88;;;1.50;;
42288;SDS011;30230;47.520;19.016;2022-08-06T09:22:24;1.70;;;1.33;;
42288;SDS011;30230;47.520;19.016;2022-08-06T09:24:26;2.88;;;1.50;;
42288;SDS011;30230;47.520;19.016;2022-08-06T09:26:27;5.63;;;2.67;;
42288;SDS011;30230;47.520;19.016;2022-08-06T09:30:38;1.55;;;1.42;;
42288;SDS011;30230;47.520;19.016;2022-08-06T09:32:40;2.78;;;1.63;;
42288;SDS011;30230;47.520;19.016;2022-08-06T09:34:46;5.65;;;1.60;;
42288;SDS011;30230;47.520;19.016;2022-08-06T09:36:48;1.57;;;1.23;;
42288;SDS011;30230;47.520;19.016;2022-08-06T09:38:53;1.83;;;1.35;;
42288;SDS011;30230;47.520;19.016;2022-08-06T09:41:07;1.77;;;1.20;;
42288;SDS011;30230;47.520;19.016;2022-08-06T09:43:09;2.55;;;1.23;;
42288;SDS011;30230;47.520;19.016;2022-08-06T09:45:26;3.70;;;1.27;;
42288;SDS011;30230;47.520;19.016;2022-08-06T09:47:27;1.30;;;0.98;;
42288;SDS011;30230;47.520;19.016;2022-08-06T09:49:27;5.03;;;1.10;;
42288;SDS011;30230;47.520;19.016;2022-08-06T09:51:44;1.63;;;1.23;;
42288;SDS011;30230;47.520;19.016;2022-08-06T09:53:51;2.78;;;1.42;;
42288;SDS011;30230;47.520;19.016;2022-08-06T09:55:55;4.80;;;1.25;;
42288;SDS011;30230;47.520;19.016;2022-08-06T09:57:56;2.63;;;1.25;;
42288;SDS011;30230;47.520;19.016;2022-08-06T09:59:57;2.03;;;1.10;;
42288;SDS011;30230;47.520;19.016;2022-08-06T10:01:57;1.93;;;1.17;;
42288;SDS011;30230;47.520;19.016;2022-08-06T10:03:58;1.90;;;1.13;;
42288;SDS011;30230;47.520;19.016;2022-08-06T10:06:05;1.40;;;1.10;;
42288;SDS011;30230;47.520;19.016;2022-08-06T10:08:12;1.33;;;0.93;;
42288;SDS011;30230;47.520;19.016;2022-08-06T10:10:16;1.88;;;1.38;;
42288;SDS011;30230;47.520;19.016;2022-08-06T10:12:20;1.93;;;1.30;;
42288;SDS011;30230;47.520;19.016;2022-08-06T10:16:26;4.57;;;1.27;;
42288;SDS011;30230;47.520;19.016;2022-08-06T10:18:32;2.72;;;1.17;;
42288;SDS011;30230;47.520;19.016;2022-08-06T10:20:45;4.80;;;1.48;;
42288;SDS011;30230;47.520;19.016;2022-08-06T10:22:59;4.38;;;1.38;;
42288;SDS011;30230;47.520;19.016;2022-08-06T10:25:01;1.52;;;0.93;;
42288;SDS011;30230;47.520;19.016;2022-08-06T10:27:05;3.30;;;1.55;;
42288;SDS011;30230;47.520;19.016;2022-08-06T10:29:07;1.92;;;1.30;;
42288;SDS011;30230;47.520;19.016;2022-08-06T10:31:09;3.30;;;1.75;;
42288;SDS011;30230;47.520;19.016;2022-08-06T10:33:12;2.33;;;1.50;;
42288;SDS011;30230;47.520;19.016;2022-08-06T10:35:14;4.68;;;1.20;;
42288;SDS011;30230;47.520;19.016;2022-08-06T10:37:17;3.50;;;1.10;;
42288;SDS011;30230;47.520;19.016;2022-08-06T10:39:26;1.95;;;1.17;;
42288;SDS011;30230;47.520;19.016;2022-08-06T10:41:28;1.60;;;1.17;;
42288;SDS011;30230;47.520;19.016;2022-08-06T10:43:30;2.25;;;1.15;;
42288;SDS011;30230;47.520;19.016;2022-08-06T10:45:31;3.83;;;1.15;;
42288;SDS011;30230;47.520;19.016;2022-08-06T10:47:33;1.65;;;1.27;;
42288;SDS011;30230;47.520;19.016;2022-08-06T10:49:34;2.60;;;1.13;;
42288;SDS011;30230;47.520;19.016;2022-08-06T10:51:36;1.02;;;0.93;;
42288;SDS011;30230;47.520;19.016;2022-08-06T10:53:38;2.88;;;1.20;;
42288;SDS011;30230;47.520;19.016;2022-08-06T10:55:41;2.85;;;1.20;;
42288;SDS011;30230;47.520;19.016;2022-08-06T10:57:42;1.80;;;1.20;;
42288;SDS011;30230;47.520;19.016;2022-08-06T10:59:43;3.63;;;1.77;;
42288;SDS011;30230;47.520;19.016;2022-08-06T11:02:28;1.95;;;1.42;;
42288;SDS011;30230;47.520;19.016;2022-08-06T11:06:41;2.33;;;1.80;;
42288;SDS011;30230;47.520;19.016;2022-08-06T11:09:02;1.45;;;1.20;;
42288;SDS011;30230;47.520;19.016;2022-08-06T11:11:23;3.60;;;1.40;;
42288;SDS011;30230;47.520;19.016;2022-08-06T11:15:40;1.48;;;1.38;;
42288;SDS011;30230;47.520;19.016;2022-08-06T11:17:46;2.60;;;1.58;;
42288;SDS011;30230;47.520;19.016;2022-08-06T11:20:03;2.53;;;1.73;;
42288;SDS011;30230;47.520;19.016;2022-08-06T11:22:04;2.97;;;1.50;;
42288;SDS011;30230;47.520;19.016;2022-08-06T11:24:05;1.33;;;1.23;;
42288;SDS011;30230;47.520;19.016;2022-08-06T11:28:08;3.20;;;1.55;;
42288;SDS011;30230;47.520;19.016;2022-08-06T11:30:10;2.50;;;1.70;;
42288;SDS011;30230;47.520;19.016;2022-08-06T11:32:41;3.47;;;1.70;;
42288;SDS011;30230;47.520;19.016;2022-08-06T11:34:47;2.00;;;1.50;;
42288;SDS011;30230;47.520;19.016;2022-08-06T11:36:57;2.42;;;1.80;;
42288;SDS011;30230;47.520;19.016;2022-08-06T11:38:59;2.05;;;1.48;;
42288;SDS011;30230;47.520;19.016;2022-08-06T11:41:10;2.15;;;1.70;;
42288;SDS011;30230;47.520;19.016;2022-08-06T11:43:41;1.80;;;1.50;;
42288;SDS011;30230;47.520;19.016;2022-08-06T11:46:16;4.88;;;3.17;;
42288;SDS011;30230;47.520;19.016;2022-08-06T11:48:20;1.60;;;1.50;;
42288;SDS011;30230;47.520;19.016;2022-08-06T11:50:23;2.67;;;1.70;;
42288;SDS011;30230;47.520;19.016;2022-08-06T11:54:35;2.17;;;1.85;;
42288;SDS011;30230;47.520;19.016;2022-08-06T11:59:13;2.30;;;1.98;;
42288;SDS011;30230;47.520;19.016;2022-08-06T12:01:14;4.60;;;1.60;;
42288;SDS011;30230;47.520;19.016;2022-08-06T12:03:15;2.27;;;1.87;;
42288;SDS011;30230;47.520;19.016;2022-08-06T12:05:37;3.60;;;1.80;;
42288;SDS011;30230;47.520;19.016;2022-08-06T12:07:38;4.00;;;2.08;;
42288;SDS011;30230;47.520;19.016;2022-08-06T12:11:40;3.40;;;2.33;;
42288;SDS011;30230;47.520;19.016;2022-08-06T12:13:40;2.87;;;1.97;;
42288;SDS011;30230;47.520;19.016;2022-08-06T12:15:41;3.65;;;1.60;;
42288;SDS011;30230;47.520;19.016;2022-08-06T12:19:55;5.50;;;2.50;;
42288;SDS011;30230;47.520;19.016;2022-08-06T12:21:57;6.20;;;2.35;;
42288;SDS011;30230;47.520;19.016;2022-08-06T12:23:58;3.35;;;2.30;;
42288;SDS011;30230;47.520;19.016;2022-08-06T12:25:59;7.45;;;3.50;;
42288;SDS011;30230;47.520;19.016;2022-08-06T12:28:00;3.03;;;2.30;;
42288;SDS011;30230;47.520;19.016;2022-08-06T12:30:01;3.45;;;2.85;;
42288;SDS011;30230;47.520;19.016;2022-08-06T12:34:23;5.22;;;2.70;;
42288;SDS011;30230;47.520;19.016;2022-08-06T12:36:29;5.18;;;2.45;;
42288;SDS011;30230;47.520;19.016;2022-08-06T12:38:31;3.38;;;2.70;;
42288;SDS011;30230;47.520;19.016;2022-08-06T12:40:33;6.78;;;4.20;;
42288;SDS011;30230;47.520;19.016;2022-08-06T12:42:34;3.33;;;2.67;;
42288;SDS011;30230;47.520;19.016;2022-08-06T12:44:34;9.23;;;2.73;;
42288;SDS011;30230;47.520;19.016;2022-08-06T12:46:35;4.20;;;2.57;;
42288;SDS011;30230;47.520;19.016;2022-08-06T12:48:35;3.03;;;2.50;;
42288;SDS011;30230;47.520;19.016;2022-08-06T12:50:37;3.20;;;2.40;;
42288;SDS011;30230;47.520;19.016;2022-08-06T12:52:39;4.47;;;3.08;;
42288;SDS011;30230;47.520;19.016;2022-08-06T12:54:40;3.97;;;2.97;;
42288;SDS011;30230;47.520;19.016;2022-08-06T12:56:40;4.27;;;2.53;;
42288;SDS011;30230;47.520;19.016;2022-08-06T12:58:41;6.90;;;2.70;;
42288;SDS011;30230;47.520;19.016;2022-08-06T13:00:45;5.50;;;2.83;;
42288;SDS011;30230;47.520;19.016;2022-08-06T13:02:49;5.20;;;2.63;;
42288;SDS011;30230;47.520;19.016;2022-08-06T13:04:52;3.33;;;2.63;;
42288;SDS011;30230;47.520;19.016;2022-08-06T13:06:54;4.28;;;2.80;;
42288;SDS011;30230;47.520;19.016;2022-08-06T13:08:55;4.47;;;2.43;;
42288;SDS011;30230;47.520;19.016;2022-08-06T13:12:58;4.33;;;3.07;;
42288;SDS011;30230;47.520;19.016;2022-08-06T13:15:00;4.30;;;2.78;;
42288;SDS011;30230;47.520;19.016;2022-08-06T13:17:11;7.10;;;3.22;;
42288;SDS011;30230;47.520;19.016;2022-08-06T13:21:19;3.95;;;2.72;;
42288;SDS011;30230;47.520;19.016;2022-08-06T13:23:27;3.58;;;2.80;;
42288;SDS011;30230;47.520;19.016;2022-08-06T13:25:39;4.28;;;2.95;;
42288;SDS011;30230;47.520;19.016;2022-08-06T13:27:42;3.58;;;2.97;;
42288;SDS011;30230;47.520;19.016;2022-08-06T13:29:58;5.05;;;2.80;;